createdAt,value
2022-12-27T00:01:22.247Z,1.77
2022-12-27T00:03:49.521Z,1.10
2022-12-27T00:06:21.758Z,1.13
2022-12-27T00:08:59.222Z,1.17
2022-12-27T00:11:29.823Z,1.27
2022-12-27T00:14:01.087Z,1.20
2022-12-27T00:16:27.924Z,1.00
2022-12-27T00:18:58.314Z,1.47
2022-12-27T00:21:25.101Z,0.90
2022-12-27T00:23:54.545Z,1.10
2022-12-27T00:26:26.522Z,1.15
2022-12-27T00:28:53.863Z,1.30
2022-12-27T00:31:24.381Z,1.10
2022-12-27T00:33:56.050Z,1.00
2022-12-27T00:36:27.509Z,1.27
2022-12-27T00:38:58.797Z,1.10
2022-12-27T00:41:31.731Z,1.23
2022-12-27T00:43:58.240Z,1.67
2022-12-27T00:46:24.801Z,0.93
2022-12-27T00:48:54.145Z,0.80
2022-12-27T00:51:25.112Z,1.33
2022-12-27T00:53:57.743Z,1.42
2022-12-27T00:56:29.273Z,0.73
2022-12-27T00:59:01.059Z,0.80
2022-12-27T01:01:30.063Z,1.00
2022-12-27T01:04:02.758Z,0.90
2022-12-27T01:06:33.877Z,0.77
2022-12-27T01:09:06.709Z,0.97
2022-12-27T01:11:35.840Z,1.00
2022-12-27T01:14:13.685Z,1.13
2022-12-27T01:16:40.722Z,0.90
2022-12-27T01:19:11.022Z,1.02
2022-12-27T01:21:40.372Z,1.20
2022-12-27T01:24:07.305Z,0.60
2022-12-27T01:26:36.281Z,1.77
2022-12-27T01:29:05.406Z,0.90
2022-12-27T01:31:32.090Z,0.68
2022-12-27T01:34:10.109Z,1.00
2022-12-27T01:36:42.557Z,1.75
2022-12-27T01:39:13.034Z,0.98
2022-12-27T01:42:11.749Z,1.60
2022-12-27T01:44:46.739Z,1.13
2022-12-27T01:47:45.917Z,1.07
2022-12-27T01:50:31.450Z,1.63
2022-12-27T01:53:12.824Z,1.45
2022-12-27T01:55:44.032Z,1.35
2022-12-27T01:58:25.541Z,1.52
2022-12-27T02:01:00.965Z,0.80
2022-12-27T02:04:04.275Z,0.98
2022-12-27T02:06:40.376Z,0.45
2022-12-27T02:09:45.926Z,1.20
2022-12-27T02:12:12.385Z,0.43
2022-12-27T02:14:51.583Z,0.50
2022-12-27T02:17:30.635Z,0.60
2022-12-27T02:20:25.841Z,0.82
2022-12-27T02:23:41.315Z,0.73
2022-12-27T02:26:48.191Z,0.80
2022-12-27T02:29:42.611Z,1.30
2022-12-27T02:32:23.409Z,1.40
2022-12-27T02:35:16.757Z,1.02
2022-12-27T02:37:48.847Z,0.98
2022-12-27T02:40:45.409Z,0.98
2022-12-27T02:43:30.775Z,0.70
2022-12-27T02:46:42.323Z,0.95
2022-12-27T02:49:54.269Z,1.20
2022-12-27T02:53:26.311Z,1.40
2022-12-27T02:56:49.480Z,0.98
2022-12-27T02:59:30.797Z,1.20
2022-12-27T03:02:40.791Z,1.27
2022-12-27T03:06:20.390Z,1.50
2022-12-27T03:09:57.302Z,1.85
2022-12-27T03:13:12.119Z,1.20
2022-12-27T03:16:09.507Z,0.70
2022-12-27T03:18:39.801Z,1.63
2022-12-27T03:21:30.225Z,1.15
2022-12-27T03:24:20.270Z,1.58
2022-12-27T03:26:52.371Z,0.88
2022-12-27T03:29:46.814Z,1.27
2022-12-27T03:32:35.552Z,1.20
2022-12-27T03:35:16.150Z,1.30
2022-12-27T03:38:08.053Z,1.08
2022-12-27T03:41:13.000Z,0.95
2022-12-27T03:43:42.569Z,1.40
2022-12-27T03:46:46.815Z,0.98
2022-12-27T03:49:38.820Z,0.55
2022-12-27T03:52:42.040Z,1.35
2022-12-27T03:55:10.057Z,1.17
2022-12-27T03:57:40.823Z,0.90
2022-12-27T04:00:10.957Z,1.55
2022-12-27T04:02:37.518Z,0.90
2022-12-27T04:05:04.985Z,1.88
2022-12-27T04:07:38.472Z,0.93
2022-12-27T04:10:31.482Z,0.77
2022-12-27T04:13:20.190Z,1.17
2022-12-27T04:16:05.010Z,1.27
2022-12-27T04:18:52.900Z,0.80
2022-12-27T04:21:43.657Z,1.35
2022-12-27T04:24:28.548Z,1.03
2022-12-27T04:27:16.478Z,0.98
2022-12-27T04:30:03.612Z,0.93
2022-12-27T04:32:51.939Z,1.08
2022-12-27T04:35:21.115Z,1.00
2022-12-27T04:37:47.482Z,0.87
2022-12-27T04:40:35.403Z,0.90
2022-12-27T04:43:20.247Z,1.10
2022-12-27T04:46:12.391Z,1.02
2022-12-27T04:49:00.450Z,1.45
2022-12-27T04:51:45.308Z,0.80
2022-12-27T04:54:42.213Z,1.33
2022-12-27T04:57:08.556Z,0.98
2022-12-27T04:59:54.276Z,0.90
2022-12-27T05:02:21.593Z,0.98
2022-12-27T05:04:48.730Z,0.90
2022-12-27T05:07:34.665Z,0.90
2022-12-27T05:10:30.083Z,1.02
2022-12-27T05:13:14.929Z,1.05
2022-12-27T05:15:41.527Z,0.98
2022-12-27T05:18:11.223Z,1.30
2022-12-27T05:20:37.647Z,1.17
2022-12-27T05:23:22.622Z,0.88
2022-12-27T05:25:54.510Z,0.73
2022-12-27T05:28:23.700Z,0.82
2022-12-27T05:30:50.308Z,1.30
2022-12-27T05:33:29.350Z,1.15
2022-12-27T05:36:01.887Z,0.50
2022-12-27T05:38:28.350Z,1.13
2022-12-27T05:41:03.287Z,0.90
2022-12-27T05:43:33.605Z,1.17
2022-12-27T05:46:06.804Z,0.73
2022-12-27T05:48:36.605Z,1.40
2022-12-27T05:51:15.868Z,0.95
2022-12-27T05:53:42.519Z,1.50
2022-12-27T05:56:12.126Z,0.93
2022-12-27T05:58:42.413Z,1.08
2022-12-27T06:01:14.499Z,0.90
2022-12-27T06:03:44.412Z,0.95
2022-12-27T06:06:11.339Z,1.00
2022-12-27T06:08:39.249Z,1.00
2022-12-27T06:11:20.578Z,0.90
2022-12-27T06:13:52.883Z,0.82
2022-12-27T06:16:24.058Z,1.00
2022-12-27T06:18:53.226Z,1.50
2022-12-27T06:21:23.810Z,0.67
2022-12-27T06:23:54.245Z,0.85
2022-12-27T06:26:30.747Z,1.38
2022-12-27T06:28:58.282Z,1.10
2022-12-27T06:31:28.371Z,1.15
2022-12-27T06:33:54.910Z,1.17
2022-12-27T06:36:26.382Z,0.90
2022-12-27T06:38:55.531Z,0.80
2022-12-27T06:41:25.613Z,1.00
2022-12-27T06:43:59.423Z,1.15
2022-12-27T06:46:28.623Z,1.10
2022-12-27T06:49:02.452Z,1.10
2022-12-27T06:51:33.166Z,1.48
2022-12-27T06:54:05.730Z,0.90
2022-12-27T06:56:35.134Z,1.00
2022-12-27T06:59:01.529Z,1.00
2022-12-27T07:01:28.453Z,0.95
2022-12-27T07:04:00.108Z,1.30
2022-12-27T07:09:12.759Z,0.90
2022-12-27T07:11:42.311Z,1.00
2022-12-27T07:14:09.692Z,1.40
2022-12-27T07:16:38.847Z,1.10
2022-12-27T07:19:05.606Z,0.93
2022-12-27T07:21:32.248Z,1.10
2022-12-27T07:24:08.888Z,1.13
2022-12-27T07:26:35.353Z,1.08
2022-12-27T07:29:05.065Z,1.50
2022-12-27T07:31:34.318Z,1.55
2022-12-27T07:34:07.194Z,1.25
2022-12-27T07:36:38.836Z,1.20
2022-12-27T07:39:12.944Z,1.30
2022-12-27T07:41:43.152Z,0.80
2022-12-27T07:44:23.097Z,1.30
2022-12-27T07:46:53.706Z,1.30
2022-12-27T07:49:23.226Z,1.13
2022-12-27T07:51:49.610Z,1.10
2022-12-27T07:54:19.553Z,1.63
2022-12-27T07:56:48.846Z,0.77
2022-12-27T07:59:17.837Z,1.63
2022-12-27T08:02:05.721Z,1.30
2022-12-27T08:04:38.135Z,1.00
2022-12-27T08:07:13.100Z,1.45
2022-12-27T08:09:43.909Z,1.35
2022-12-27T08:12:16.375Z,1.73
2022-12-27T08:14:43.050Z,1.43
2022-12-27T08:17:23.786Z,1.42
2022-12-27T08:19:55.119Z,0.90
2022-12-27T08:22:23.751Z,1.45
2022-12-27T08:24:54.919Z,1.30
2022-12-27T08:27:25.902Z,1.40
2022-12-27T08:29:54.898Z,1.75
2022-12-27T08:32:22.775Z,1.92
2022-12-27T08:34:49.165Z,1.15
2022-12-27T08:37:15.825Z,1.52
2022-12-27T08:39:50.505Z,1.90
2022-12-27T08:42:16.906Z,1.55
2022-12-27T08:44:44.554Z,1.42
2022-12-27T08:47:10.986Z,2.30
2022-12-27T08:49:37.351Z,1.65
2022-12-27T08:52:03.921Z,0.90
2022-12-27T08:54:32.688Z,1.55
2022-12-27T08:57:02.459Z,1.60
2022-12-27T08:59:28.944Z,1.30
2022-12-27T09:01:59.333Z,1.50
2022-12-27T09:04:25.823Z,1.13
2022-12-27T09:06:52.297Z,1.73
2022-12-27T09:09:23.785Z,1.08
2022-12-27T09:11:50.203Z,1.25
2022-12-27T09:14:17.062Z,1.35
2022-12-27T09:16:56.407Z,1.20
2022-12-27T09:19:26.015Z,1.10
2022-12-27T09:21:54.749Z,1.40
2022-12-27T09:24:21.188Z,1.65
2022-12-27T09:26:53.537Z,1.63
2022-12-27T09:29:22.771Z,1.40
2022-12-27T09:31:56.970Z,1.38
2022-12-27T09:34:23.371Z,1.73
2022-12-27T09:36:49.781Z,1.42
2022-12-27T09:39:34.763Z,1.90
2022-12-27T09:42:59.012Z,2.53
2022-12-27T09:45:51.783Z,1.55
2022-12-27T09:48:33.565Z,1.77
2022-12-27T09:51:08.511Z,1.63
2022-12-27T09:54:20.734Z,1.70
2022-12-27T09:57:18.866Z,1.63
2022-12-27T09:59:53.620Z,1.70
2022-12-27T10:02:22.996Z,1.52
2022-12-27T10:05:21.635Z,1.95
2022-12-27T10:08:08.669Z,2.30
2022-12-27T10:10:49.470Z,2.30
2022-12-27T10:13:27.912Z,2.35
2022-12-27T10:16:10.416Z,2.63
2022-12-27T10:19:30.880Z,2.20
2022-12-27T10:22:25.155Z,2.35
2022-12-27T10:24:56.987Z,2.87
2022-12-27T10:27:33.465Z,1.85
2022-12-27T10:30:00.157Z,2.10
2022-12-27T10:32:30.219Z,2.20
2022-12-27T10:35:02.458Z,1.80
2022-12-27T10:37:30.316Z,2.47
2022-12-27T10:40:21.172Z,3.20
2022-12-27T10:43:05.764Z,2.72
2022-12-27T10:45:45.669Z,3.10
2022-12-27T10:48:47.435Z,1.98
2022-12-27T10:51:23.390Z,2.40
2022-12-27T10:53:49.692Z,1.90
2022-12-27T10:56:32.453Z,2.38
2022-12-27T10:59:07.611Z,2.85
2022-12-27T11:01:34.870Z,1.95
2022-12-27T11:04:21.357Z,1.90
2022-12-27T11:06:59.518Z,1.63
2022-12-27T11:09:54.312Z,1.52
2022-12-27T11:12:31.326Z,1.52
2022-12-27T11:15:25.678Z,1.90
2022-12-27T11:17:58.538Z,1.50
2022-12-27T11:20:39.398Z,1.60
2022-12-27T11:23:08.485Z,2.28
2022-12-27T11:25:36.546Z,2.28
2022-12-27T11:28:31.105Z,1.48
2022-12-27T11:31:04.329Z,1.50
2022-12-27T11:33:43.188Z,2.60
2022-12-27T11:36:15.424Z,2.17
2022-12-27T11:38:46.861Z,2.50
2022-12-27T11:41:53.502Z,2.08
2022-12-27T11:44:24.269Z,2.20
2022-12-27T11:47:02.543Z,1.77
2022-12-27T11:49:37.800Z,2.05
2022-12-27T11:52:44.651Z,2.08
2022-12-27T11:55:30.112Z,1.98
2022-12-27T11:58:21.534Z,2.30
2022-12-27T12:01:05.668Z,2.25
2022-12-27T12:03:52.761Z,2.13
2022-12-27T12:06:43.514Z,1.85
2022-12-27T12:09:28.126Z,2.67
2022-12-27T12:12:25.616Z,2.10
2022-12-27T12:15:30.602Z,1.90
2022-12-27T12:18:17.744Z,2.10
2022-12-27T12:20:54.855Z,2.33
2022-12-27T12:23:58.027Z,2.25
2022-12-27T12:26:59.516Z,1.97
2022-12-27T12:29:46.262Z,2.22
2022-12-27T12:32:33.570Z,2.00
2022-12-27T12:35:27.582Z,1.83
2022-12-27T12:38:04.052Z,1.75
2022-12-27T12:41:11.129Z,1.70
2022-12-27T12:44:14.438Z,1.63
2022-12-27T12:46:55.931Z,0.95
2022-12-27T12:50:00.745Z,1.75
2022-12-27T12:53:04.773Z,1.65
2022-12-27T12:55:40.337Z,1.93
2022-12-27T12:59:02.893Z,1.95
2022-12-27T13:01:50.538Z,1.80
2022-12-27T13:04:49.694Z,1.77
2022-12-27T13:07:43.047Z,2.03
2022-12-27T13:10:54.249Z,2.10
2022-12-27T13:13:54.574Z,2.15
2022-12-27T13:16:39.806Z,2.15
2022-12-27T13:19:18.065Z,2.42
2022-12-27T13:22:15.607Z,1.58
2022-12-27T13:25:13.508Z,1.30
2022-12-27T13:28:11.845Z,1.80
2022-12-27T13:31:21.239Z,1.40
2022-12-27T13:33:50.815Z,1.38
2022-12-27T13:36:42.839Z,1.75
2022-12-27T13:39:27.869Z,1.40
2022-12-27T13:42:21.884Z,1.23
2022-12-27T13:45:03.756Z,1.20
2022-12-27T13:47:54.908Z,1.20
2022-12-27T13:50:56.447Z,1.58
2022-12-27T13:53:58.174Z,1.60
2022-12-27T13:56:53.875Z,1.80
2022-12-27T13:59:49.262Z,1.63
2022-12-27T14:02:40.773Z,1.63
2022-12-27T14:05:26.111Z,1.40
2022-12-27T14:08:41.784Z,1.03
2022-12-27T14:11:44.667Z,1.50
2022-12-27T14:14:20.869Z,1.58
2022-12-27T14:16:59.083Z,1.80
2022-12-27T14:20:03.029Z,1.60
2022-12-27T14:22:50.969Z,1.20
2022-12-27T14:25:51.226Z,1.30
2022-12-27T14:28:59.669Z,1.23
2022-12-27T14:31:41.480Z,2.00
2022-12-27T14:34:11.141Z,1.60
2022-12-27T14:37:18.937Z,1.00
2022-12-27T14:40:15.276Z,1.23
2022-12-27T14:43:15.850Z,1.30
2022-12-27T14:46:19.701Z,1.30
2022-12-27T14:48:52.120Z,1.67
2022-12-27T14:55:13.743Z,1.27
2022-12-27T14:58:05.838Z,1.25
2022-12-27T15:01:12.348Z,1.30
2022-12-27T15:04:07.818Z,1.50
2022-12-27T15:06:59.347Z,1.50
2022-12-27T15:09:47.981Z,1.52
2022-12-27T15:12:39.815Z,1.60
2022-12-27T15:15:47.382Z,1.10
2022-12-27T15:18:33.194Z,1.55
2022-12-27T15:21:41.763Z,1.40
2022-12-27T15:24:51.478Z,1.10
2022-12-27T15:27:29.823Z,1.55
2022-12-27T15:30:10.073Z,1.40
2022-12-27T15:32:53.292Z,1.35
2022-12-27T15:35:56.175Z,1.30
2022-12-27T15:38:41.502Z,1.23
2022-12-27T15:41:29.607Z,1.10
2022-12-27T15:44:37.033Z,1.48
2022-12-27T15:47:11.703Z,1.70
2022-12-27T15:50:15.455Z,1.87
2022-12-27T15:52:44.850Z,1.27
2022-12-27T15:55:37.052Z,1.38
2022-12-27T15:58:18.004Z,1.90
2022-12-27T16:01:25.673Z,1.55
2022-12-27T16:03:54.091Z,2.00
2022-12-27T16:06:36.033Z,2.03
2022-12-27T16:09:35.606Z,1.90
2022-12-27T16:12:07.874Z,1.50
2022-12-27T16:14:48.519Z,1.70
2022-12-27T16:17:40.101Z,1.70
2022-12-27T16:20:20.673Z,1.90
2022-12-27T16:23:18.702Z,1.40
2022-12-27T16:25:45.943Z,1.35
2022-12-27T16:28:26.393Z,1.90
2022-12-27T16:31:04.199Z,1.30
2022-12-27T16:33:40.009Z,1.85
2022-12-27T16:36:13.578Z,1.88
2022-12-27T16:39:02.241Z,1.65
2022-12-27T16:41:49.974Z,1.25
2022-12-27T16:44:25.399Z,1.57
2022-12-27T16:47:14.822Z,1.50
2022-12-27T16:50:05.849Z,1.15
2022-12-27T16:52:51.343Z,1.60
2022-12-27T16:58:39.091Z,1.37
2022-12-27T17:01:53.233Z,1.23
2022-12-27T17:04:47.417Z,2.03
2022-12-27T17:07:56.305Z,1.65
2022-12-27T17:10:30.066Z,1.10
2022-12-27T17:13:02.608Z,1.20
2022-12-27T17:15:29.974Z,1.58
2022-12-27T17:18:06.805Z,1.35
2022-12-27T17:20:38.786Z,1.75
2022-12-27T17:23:07.686Z,2.05
2022-12-27T17:26:19.186Z,1.67
2022-12-27T17:29:11.582Z,1.60
2022-12-27T17:32:02.403Z,2.30
2022-12-27T17:38:17.120Z,1.10
2022-12-27T17:41:44.582Z,1.30
2022-12-27T17:44:46.828Z,1.15
2022-12-27T17:47:16.136Z,1.60
2022-12-27T17:49:43.277Z,1.30
2022-12-27T17:52:37.814Z,1.77
2022-12-27T17:55:48.215Z,1.53
2022-12-27T17:58:16.778Z,1.58
2022-12-27T18:00:57.465Z,1.40
2022-12-27T18:03:32.107Z,1.30
2022-12-27T18:05:58.564Z,1.60
2022-12-27T18:08:34.929Z,1.03
2022-12-27T18:11:05.363Z,1.25
2022-12-27T18:13:37.024Z,1.13
2022-12-27T18:16:39.414Z,1.38
2022-12-27T18:19:06.223Z,1.60
2022-12-27T18:21:32.700Z,1.60
2022-12-27T18:24:00.136Z,1.70
2022-12-27T18:26:44.267Z,1.30
2022-12-27T18:29:13.372Z,0.90
2022-12-27T18:31:53.204Z,1.08
2022-12-27T18:34:29.692Z,0.97
2022-12-27T18:37:02.118Z,0.82
2022-12-27T18:39:53.771Z,1.15
2022-12-27T18:42:22.757Z,1.30
2022-12-27T18:45:05.655Z,1.10
2022-12-27T18:47:38.569Z,1.00
2022-12-27T18:50:23.685Z,1.30
2022-12-27T18:53:09.154Z,1.35
2022-12-27T18:55:38.532Z,1.00
2022-12-27T18:58:29.208Z,1.20
2022-12-27T19:01:26.121Z,1.00
2022-12-27T19:04:14.802Z,1.55
2022-12-27T19:07:02.987Z,1.65
2022-12-27T19:09:59.685Z,1.40
2022-12-27T19:12:38.586Z,1.17
2022-12-27T19:15:19.763Z,1.23
2022-12-27T19:20:37.407Z,1.52
2022-12-27T19:23:38.641Z,1.05
2022-12-27T19:26:28.360Z,1.25
2022-12-27T19:29:07.062Z,1.33
2022-12-27T19:31:43.435Z,1.80
2022-12-27T19:34:18.737Z,1.00
2022-12-27T19:36:49.263Z,1.17
2022-12-27T19:39:37.759Z,1.30
2022-12-27T19:42:27.023Z,1.50
2022-12-27T19:44:56.865Z,1.40
2022-12-27T19:47:31.149Z,1.85
2022-12-27T19:50:00.393Z,1.50
2022-12-27T19:55:21.768Z,1.00
2022-12-27T19:57:48.176Z,1.30
2022-12-27T20:00:19.845Z,1.48
2022-12-27T20:02:46.472Z,1.75
2022-12-27T20:05:13.054Z,1.20
2022-12-27T20:07:44.166Z,1.17
2022-12-27T20:10:15.626Z,1.00
2022-12-27T20:12:50.468Z,1.38
2022-12-27T20:15:16.809Z,1.17
2022-12-27T20:17:45.186Z,1.15
2022-12-27T20:20:14.560Z,1.13
2022-12-27T20:22:40.966Z,0.77
2022-12-27T20:25:30.832Z,1.30
2022-12-27T20:28:00.724Z,1.00
2022-12-27T20:30:27.084Z,1.05
2022-12-27T20:32:57.019Z,0.97
2022-12-27T20:35:26.486Z,1.02
2022-12-27T20:37:54.985Z,1.08
2022-12-27T20:40:28.501Z,1.40
2022-12-27T20:43:03.447Z,1.20
2022-12-27T20:45:34.046Z,0.97
2022-12-27T20:48:05.533Z,1.23
2022-12-27T20:50:39.477Z,1.17
2022-12-27T20:53:18.331Z,0.90
2022-12-27T20:55:45.241Z,0.98
2022-12-27T20:58:11.936Z,0.90
2022-12-27T21:00:41.340Z,1.65
2022-12-27T21:03:10.331Z,1.35
2022-12-27T21:05:37.222Z,1.42
2022-12-27T21:08:03.714Z,1.33
2022-12-27T21:10:30.051Z,0.93
2022-12-27T21:13:06.937Z,1.10
2022-12-27T21:15:38.797Z,1.25
2022-12-27T21:18:11.383Z,0.73
2022-12-27T21:20:37.965Z,1.08
2022-12-27T21:23:07.136Z,1.63
2022-12-27T21:25:33.529Z,1.13
2022-12-27T21:27:59.929Z,0.60
2022-12-27T21:30:26.647Z,1.55
2022-12-27T21:32:53.048Z,1.38
2022-12-27T21:35:19.459Z,0.70
2022-12-27T21:37:45.826Z,0.93
2022-12-27T21:40:15.355Z,1.23
2022-12-27T21:42:44.591Z,0.88
2022-12-27T21:45:11.132Z,0.80
2022-12-27T21:47:40.764Z,0.90
2022-12-27T21:50:10.280Z,1.40
2022-12-27T21:52:43.620Z,0.93
2022-12-27T21:55:12.824Z,1.13
2022-12-27T21:57:41.370Z,1.10
2022-12-27T22:00:15.593Z,1.20
2022-12-27T22:02:42.271Z,1.45
2022-12-27T22:05:09.215Z,1.08
2022-12-27T22:07:38.650Z,1.15
2022-12-27T22:10:05.560Z,1.05
2022-12-27T22:12:34.382Z,1.73
2022-12-27T22:15:03.824Z,1.05
2022-12-27T22:17:30.402Z,1.48
2022-12-27T22:19:59.447Z,1.05
2022-12-27T22:22:28.745Z,0.77
2022-12-27T22:24:55.113Z,0.90
2022-12-27T22:27:24.329Z,1.20
2022-12-27T22:29:53.742Z,1.30
2022-12-27T22:32:27.878Z,1.27
2022-12-27T22:34:54.278Z,1.30
2022-12-27T22:37:20.609Z,0.90
2022-12-27T22:39:52.755Z,0.98
2022-12-27T22:42:19.335Z,0.98
2022-12-27T22:44:45.779Z,1.00
2022-12-27T22:47:32.150Z,1.10
2022-12-27T22:49:58.586Z,1.63
2022-12-27T22:52:25.837Z,1.05
2022-12-27T22:55:04.199Z,1.05
2022-12-27T22:57:33.143Z,1.65
2022-12-27T23:00:02.548Z,1.10
2022-12-27T23:02:32.022Z,1.47
2022-12-27T23:04:58.770Z,1.30
2022-12-27T23:08:04.412Z,1.15
2022-12-27T23:10:14.514Z,1.17
2022-12-27T23:12:40.908Z,1.15
2022-12-27T23:15:12.909Z,1.40
2022-12-27T23:17:39.340Z,1.63
2022-12-27T23:20:06.386Z,1.30
2022-12-27T23:22:37.156Z,1.42
2022-12-27T23:25:03.759Z,1.80
2022-12-27T23:27:30.149Z,1.40
2022-12-27T23:32:39.658Z,1.52
2022-12-27T23:35:09.095Z,1.27
2022-12-27T23:37:35.516Z,1.30
2022-12-27T23:43:06.633Z,1.35
2022-12-27T23:45:45.324Z,1.25
2022-12-27T23:48:11.754Z,1.40
2022-12-27T23:50:38.225Z,1.27
2022-12-27T23:53:04.638Z,1.40
2022-12-27T23:55:35.829Z,1.50
2022-12-27T23:58:02.235Z,1.20
